createdAt,value
2019-02-02T00:00:08.146Z,-0.20
2019-02-02T00:37:15.242Z,-0.10
2019-02-02T00:39:44.689Z,-0.20
2019-02-02T01:18:59.163Z,-0.30
2019-02-02T02:09:48.079Z,-0.70
2019-02-02T02:12:18.008Z,-0.70
2019-02-02T02:14:48.308Z,-0.80
2019-02-02T02:17:17.860Z,-0.70
2019-02-02T02:19:49.140Z,-0.70
2019-02-02T02:22:28.620Z,-0.70
2019-02-02T02:24:59.031Z,-0.80
2019-02-02T02:27:28.720Z,-0.70
2019-02-02T02:29:58.141Z,-0.80
2019-02-02T02:32:29.665Z,-0.80
2019-02-02T02:34:59.315Z,-0.90
2019-02-02T02:37:28.666Z,-1.00
2019-02-02T02:39:58.439Z,-1.10
2019-02-02T02:42:28.280Z,-1.10
2019-02-02T02:45:01.926Z,-1.10
2019-02-02T02:47:31.956Z,-1.10
2019-02-02T02:50:01.517Z,-1.10
2019-02-02T02:52:33.971Z,-1.00
2019-02-02T02:55:03.944Z,-1.00
2019-02-02T02:57:33.655Z,-0.90
2019-02-02T03:00:04.068Z,-0.80
2019-02-02T03:20:04.407Z,-1.10
2019-02-02T03:23:03.406Z,-1.10
2019-02-02T03:32:01.339Z,-1.20
2019-02-02T03:34:36.401Z,-1.20
2019-02-02T03:37:05.841Z,-1.30
2019-02-02T03:43:39.906Z,-1.30
2019-02-02T03:46:45.743Z,-1.30
2019-02-02T03:59:06.531Z,-1.20
2019-02-02T04:02:02.094Z,-1.10
2019-02-02T04:05:25.684Z,-1.10
2019-02-02T04:08:29.265Z,-1.00
2019-02-02T04:11:04.576Z,-1.00
2019-02-02T04:13:34.091Z,-0.90
2019-02-02T04:16:09.473Z,-0.90
2019-02-02T04:26:04.882Z,-1.00
2019-02-02T04:29:18.078Z,-1.00
2019-02-02T04:44:40.482Z,-1.10
2019-02-02T04:52:17.580Z,-1.00
2019-02-02T04:58:02.406Z,-1.00
2019-02-02T05:01:48.358Z,-1.00
2019-02-02T05:05:00.194Z,-1.00
2019-02-02T05:07:38.896Z,-1.00
2019-02-02T05:11:15.323Z,-1.00
2019-02-02T05:13:45.325Z,-0.90
2019-02-02T05:16:14.811Z,-1.00
2019-02-02T05:18:45.199Z,-1.00
2019-02-02T05:21:15.201Z,-0.90
2019-02-02T05:23:44.933Z,-0.80
2019-02-02T05:26:14.373Z,-0.90
2019-02-02T05:28:44.085Z,-0.90
2019-02-02T05:31:13.819Z,-0.80
2019-02-02T05:34:55.946Z,-0.80
2019-02-02T05:37:32.083Z,-0.70
2019-02-02T05:40:08.346Z,-0.70
2019-02-02T05:42:52.643Z,-0.70
2019-02-02T05:49:55.688Z,-0.50
2019-02-02T06:02:13.506Z,-0.60
2019-02-02T06:04:43.594Z,-0.60
2019-02-02T06:08:16.427Z,-0.70
2019-02-02T06:15:41.510Z,-0.70
2019-02-02T06:18:08.266Z,-0.60
2019-02-02T06:20:37.468Z,-0.50
2019-02-02T06:23:06.501Z,-0.60
2019-02-02T06:25:36.326Z,-0.60
2019-02-02T06:28:05.600Z,-0.60
2019-02-02T06:30:34.647Z,-0.60
2019-02-02T06:33:03.619Z,-0.50
2019-02-02T06:35:32.595Z,-0.50
2019-02-02T06:38:01.608Z,-0.50
2019-02-02T06:40:30.503Z,-0.50
2019-02-02T06:42:59.807Z,-0.50
2019-02-02T06:49:27.413Z,-0.40
2019-02-02T06:51:56.810Z,-0.40
2019-02-02T06:54:26.148Z,-0.40
2019-02-02T06:56:55.441Z,-0.40
2019-02-02T06:59:25.116Z,-0.30
2019-02-02T07:01:54.313Z,-0.30
2019-02-02T07:04:23.677Z,-0.30
2019-02-02T07:06:53.369Z,-0.30
2019-02-02T07:09:22.693Z,-0.30
2019-02-02T07:11:52.044Z,-0.30
2019-02-02T07:14:21.711Z,-0.20
2019-02-02T07:16:51.345Z,-0.10
2019-02-02T07:19:20.850Z,0.00
2019-02-02T07:21:50.011Z,0.00
2019-02-02T07:24:19.490Z,0.00
2019-02-02T07:26:48.821Z,-0.10
2019-02-02T07:29:18.433Z,0.00
2019-02-02T07:31:48.141Z,0.10
2019-02-02T07:34:17.898Z,0.10
2019-02-02T07:36:47.137Z,0.10
2019-02-02T07:39:16.504Z,0.10
2019-02-02T07:41:46.000Z,0.20
2019-02-02T07:44:17.501Z,0.10
2019-02-02T07:46:47.232Z,0.10
2019-02-02T07:49:16.527Z,0.20
2019-02-02T07:52:09.898Z,0.20
2019-02-02T07:54:36.886Z,0.30
2019-02-02T07:57:06.191Z,0.30
2019-02-02T07:59:35.482Z,0.40
2019-02-02T08:02:04.680Z,0.40
2019-02-02T08:04:33.835Z,0.60
2019-02-02T08:07:03.153Z,0.60
2019-02-02T08:09:32.048Z,0.80
2019-02-02T08:12:01.150Z,0.90
2019-02-02T08:14:30.070Z,0.90
2019-02-02T08:17:28.500Z,0.90
2019-02-02T08:19:57.380Z,1.00
2019-02-02T08:23:00.478Z,1.10
2019-02-02T08:28:50.037Z,1.30
2019-02-02T08:32:21.609Z,1.20
2019-02-02T08:35:05.457Z,1.30
2019-02-02T08:37:34.713Z,1.20
2019-02-02T08:40:03.773Z,1.20
2019-02-02T08:42:32.779Z,1.20
2019-02-02T08:45:01.681Z,1.20
2019-02-02T08:47:32.630Z,1.20
2019-02-02T08:50:01.582Z,1.20
2019-02-02T08:52:30.628Z,1.10
2019-02-02T08:54:59.843Z,1.10
2019-02-02T08:57:28.768Z,1.00
2019-02-02T08:59:59.848Z,1.20
2019-02-02T09:02:28.592Z,1.30
2019-02-02T09:04:57.664Z,1.40
2019-02-02T09:07:26.670Z,1.50
2019-02-02T09:09:55.577Z,1.50
2019-02-02T09:12:24.471Z,1.40
2019-02-02T09:14:53.458Z,1.30
2019-02-02T09:17:22.527Z,1.40
2019-02-02T09:20:10.714Z,1.30
2019-02-02T09:22:39.707Z,1.30
2019-02-02T09:25:10.721Z,1.50
2019-02-02T09:27:39.623Z,1.60
2019-02-02T09:30:15.526Z,1.70
2019-02-02T09:32:44.847Z,1.80
2019-02-02T09:35:13.908Z,1.90
2019-02-02T09:37:42.974Z,1.90
2019-02-02T09:40:13.271Z,1.80
2019-02-02T09:42:42.551Z,1.80
2019-02-02T09:45:13.018Z,1.90
2019-02-02T09:47:42.213Z,2.00
2019-02-02T09:50:13.666Z,2.10
2019-02-02T09:52:42.792Z,2.10
2019-02-02T09:55:13.813Z,2.10
2019-02-02T09:57:42.920Z,2.20
2019-02-02T10:00:17.755Z,2.20
2019-02-02T10:02:46.654Z,2.20
2019-02-02T10:05:19.060Z,2.20
2019-02-02T10:07:47.140Z,2.20
2019-02-02T10:10:18.181Z,2.30
2019-02-02T10:12:47.104Z,2.40
2019-02-02T10:15:16.203Z,2.30
2019-02-02T10:17:45.706Z,2.40
2019-02-02T10:20:17.277Z,2.30
2019-02-02T10:22:46.271Z,2.20
2019-02-02T10:25:17.564Z,2.40
2019-02-02T10:27:46.363Z,2.50
2019-02-02T10:30:18.739Z,2.60
2019-02-02T10:32:48.103Z,2.70
2019-02-02T10:35:17.160Z,2.80
2019-02-02T10:37:46.374Z,3.00
2019-02-02T10:40:15.671Z,3.00
2019-02-02T10:42:44.691Z,3.10
2019-02-02T10:45:13.922Z,3.00
2019-02-02T10:47:43.117Z,3.00
2019-02-02T10:50:13.346Z,3.00
2019-02-02T10:52:42.384Z,3.10
2019-02-02T10:55:12.043Z,3.10
2019-02-02T10:57:41.168Z,3.10
2019-02-02T11:00:16.834Z,3.10
2019-02-02T11:02:45.924Z,3.00
2019-02-02T11:05:15.233Z,3.10
2019-02-02T11:07:44.318Z,2.90
2019-02-02T11:10:18.180Z,2.90
2019-02-02T11:12:47.144Z,3.00
2019-02-02T11:15:17.002Z,3.00
2019-02-02T11:17:46.010Z,3.10
2019-02-02T11:20:20.407Z,3.10
2019-02-02T11:22:49.513Z,3.10
2019-02-02T11:25:18.509Z,3.10
2019-02-02T11:27:47.653Z,3.00
2019-02-02T11:30:17.183Z,3.00
2019-02-02T11:32:46.495Z,3.00
2019-02-02T11:35:15.928Z,3.00
2019-02-02T11:37:45.144Z,3.10
2019-02-02T11:40:16.689Z,3.10
2019-02-02T11:42:45.607Z,3.30
2019-02-02T11:45:14.956Z,3.40
2019-02-02T11:47:44.043Z,3.40
2019-02-02T11:50:14.164Z,3.40
2019-02-02T11:52:43.181Z,3.30
2019-02-02T11:55:12.801Z,3.40
2019-02-02T11:57:41.700Z,3.30
2019-02-02T12:00:16.310Z,3.40
2019-02-02T12:02:49.512Z,3.50
2019-02-02T12:05:17.088Z,3.50
2019-02-02T12:07:46.143Z,3.50
2019-02-02T12:10:16.839Z,3.60
2019-02-02T12:12:45.818Z,3.60
2019-02-02T12:15:16.074Z,3.60
2019-02-02T12:17:45.073Z,3.60
2019-02-02T12:20:15.921Z,3.60
2019-02-02T12:22:45.092Z,3.70
2019-02-02T12:25:14.273Z,3.70
2019-02-02T12:27:43.389Z,3.70
2019-02-02T12:30:14.945Z,3.70
2019-02-02T12:32:44.714Z,3.70
2019-02-02T12:35:16.123Z,3.60
2019-02-02T12:37:45.301Z,3.70
2019-02-02T12:40:14.627Z,3.70
2019-02-02T12:42:43.772Z,3.70
2019-02-02T12:45:18.441Z,3.70
2019-02-02T12:47:47.504Z,3.70
2019-02-02T12:50:16.495Z,3.70
2019-02-02T12:52:45.639Z,3.80
2019-02-02T12:55:14.889Z,4.00
2019-02-02T12:57:46.916Z,3.90
2019-02-02T13:00:17.926Z,3.80
2019-02-02T13:02:47.316Z,3.70
2019-02-02T13:05:19.497Z,3.70
2019-02-02T13:07:48.724Z,3.70
2019-02-02T13:10:20.459Z,3.80
2019-02-02T13:12:50.428Z,3.80
2019-02-02T13:15:20.445Z,3.80
2019-02-02T13:17:49.530Z,3.80
2019-02-02T13:20:19.069Z,3.90
2019-02-02T13:22:48.257Z,3.80
2019-02-02T13:25:18.761Z,3.70
2019-02-02T13:27:47.931Z,3.80
2019-02-02T13:30:21.299Z,3.70
2019-02-02T13:32:50.450Z,3.80
2019-02-02T13:35:19.756Z,3.70
2019-02-02T13:37:48.872Z,3.60
2019-02-02T13:40:19.212Z,3.70
2019-02-02T13:42:48.512Z,3.80
2019-02-02T13:45:19.003Z,3.80
2019-02-02T13:47:48.199Z,3.70
2019-02-02T13:50:20.526Z,3.70
2019-02-02T13:52:49.792Z,3.70
2019-02-02T13:55:18.853Z,3.70
2019-02-02T13:57:49.829Z,3.70
2019-02-02T14:00:21.170Z,3.80
2019-02-02T14:03:01.431Z,3.70
2019-02-02T14:05:21.084Z,3.60
2019-02-02T14:07:50.215Z,3.60
2019-02-02T14:10:21.383Z,3.60
2019-02-02T14:12:50.432Z,3.60
2019-02-02T14:15:19.463Z,3.60
2019-02-02T14:17:48.507Z,3.70
2019-02-02T14:20:17.651Z,3.70
2019-02-02T14:22:46.794Z,3.70
2019-02-02T14:25:16.559Z,3.80
2019-02-02T14:27:45.728Z,3.70
2019-02-02T14:30:20.258Z,3.70
2019-02-02T14:32:49.368Z,3.70
2019-02-02T14:35:19.537Z,3.80
2019-02-02T14:37:48.860Z,3.80
2019-02-02T14:40:18.851Z,3.70
2019-02-02T14:42:49.804Z,3.70
2019-02-02T14:45:20.505Z,3.80
2019-02-02T14:47:50.793Z,3.90
2019-02-02T14:50:21.020Z,3.90
2019-02-02T14:52:50.731Z,3.90
2019-02-02T14:55:22.277Z,3.90
2019-02-02T14:57:51.317Z,3.90
2019-02-02T15:00:22.093Z,3.90
2019-02-02T15:02:51.035Z,3.90
2019-02-02T15:05:21.638Z,3.90
2019-02-02T15:07:50.827Z,3.90
2019-02-02T15:10:20.615Z,3.90
2019-02-02T15:12:49.724Z,3.80
2019-02-02T15:15:19.104Z,3.80
2019-02-02T15:17:49.330Z,3.90
2019-02-02T15:20:22.711Z,3.80
2019-02-02T15:25:56.103Z,3.70
2019-02-02T15:28:27.740Z,3.70
2019-02-02T15:31:08.406Z,3.60
2019-02-02T15:33:42.903Z,3.60
2019-02-02T15:36:11.876Z,3.60
2019-02-02T15:38:41.115Z,3.60
2019-02-02T15:41:10.462Z,3.50
2019-02-02T15:43:39.680Z,3.50
2019-02-02T15:46:09.470Z,3.50
2019-02-02T15:48:38.902Z,3.40
2019-02-02T15:51:08.200Z,3.40
2019-02-02T15:53:37.260Z,3.40
2019-02-02T15:56:06.296Z,3.30
2019-02-02T15:58:35.445Z,3.20
2019-02-02T16:01:04.987Z,3.30
2019-02-02T16:03:34.893Z,3.40
2019-02-02T16:06:04.408Z,3.40
2019-02-02T16:08:33.708Z,3.40
2019-02-02T16:11:04.331Z,3.40
2019-02-02T16:13:33.542Z,3.40
2019-02-02T16:16:07.348Z,3.30
2019-02-02T16:18:42.451Z,3.30
2019-02-02T16:21:11.523Z,3.30
2019-02-02T16:23:40.555Z,3.30
2019-02-02T16:26:09.587Z,3.30
2019-02-02T16:28:38.573Z,3.20
2019-02-02T16:31:07.818Z,3.20
2019-02-02T16:34:02.296Z,3.10
2019-02-02T16:36:27.479Z,3.20
2019-02-02T16:38:56.872Z,3.10
2019-02-02T16:41:45.470Z,3.10
2019-02-02T16:44:18.713Z,3.00
2019-02-02T16:50:11.285Z,3.00
2019-02-02T16:52:41.079Z,2.90
2019-02-02T16:55:11.572Z,2.80
2019-02-02T16:57:46.804Z,2.90
2019-02-02T17:00:34.516Z,2.70
2019-02-02T17:06:05.652Z,2.70
2019-02-02T17:11:45.002Z,2.70
2019-02-02T17:17:34.404Z,2.80
2019-02-02T17:20:04.213Z,2.80
2019-02-02T17:22:33.164Z,2.80
2019-02-02T17:25:02.185Z,2.80
2019-02-02T17:27:31.183Z,2.70
2019-02-02T17:30:00.203Z,2.70
2019-02-02T17:32:29.215Z,2.70
2019-02-02T17:34:59.005Z,2.70
2019-02-02T17:37:28.160Z,2.70
2019-02-02T17:39:57.250Z,2.60
2019-02-02T17:42:26.402Z,2.60
2019-02-02T17:44:55.658Z,2.50
2019-02-02T17:47:25.581Z,2.50
2019-02-02T17:49:54.815Z,2.40
2019-02-02T17:52:24.192Z,2.40
2019-02-02T17:54:53.428Z,2.40
2019-02-02T17:57:22.586Z,2.50
2019-02-02T17:59:51.719Z,2.40
2019-02-02T18:02:21.023Z,2.50
2019-02-02T18:04:50.075Z,2.50
2019-02-02T18:07:19.174Z,2.50
2019-02-02T18:09:48.256Z,2.50
2019-02-02T18:12:17.383Z,2.40
2019-02-02T18:14:47.883Z,2.40
2019-02-02T18:17:19.730Z,2.40
2019-02-02T18:19:48.952Z,2.40
2019-02-02T18:22:18.290Z,2.40
2019-02-02T18:24:47.346Z,2.40
2019-02-02T18:27:16.493Z,2.40
2019-02-02T18:29:45.744Z,2.50
2019-02-02T18:32:14.720Z,2.50
2019-02-02T18:34:50.873Z,2.60
2019-02-02T18:37:14.464Z,2.60
2019-02-02T18:39:43.553Z,2.60
2019-02-02T18:42:12.855Z,2.60
2019-02-02T18:44:41.842Z,2.50
2019-02-02T18:47:10.902Z,2.60
2019-02-02T18:49:41.327Z,2.70
2019-02-02T18:52:13.715Z,2.70
2019-02-02T18:54:43.098Z,2.70
2019-02-02T18:57:12.933Z,2.70
2019-02-02T18:59:42.382Z,2.70
2019-02-02T19:02:13.406Z,2.70
2019-02-02T19:04:42.673Z,2.70
2019-02-02T19:07:13.678Z,2.70
2019-02-02T19:09:47.558Z,2.80
2019-02-02T19:12:19.457Z,2.80
2019-02-02T19:14:55.690Z,2.80
2019-02-02T19:17:23.932Z,2.70
2019-02-02T19:19:53.621Z,2.70
2019-02-02T19:22:23.351Z,2.70
2019-02-02T19:25:01.747Z,2.70
2019-02-02T19:27:31.284Z,2.60
2019-02-02T19:30:00.982Z,2.60
2019-02-02T19:32:30.434Z,2.50
2019-02-02T19:35:15.182Z,2.50
2019-02-02T19:37:38.796Z,2.50
2019-02-02T19:40:07.108Z,2.50
2019-02-02T19:42:36.832Z,2.50
2019-02-02T19:45:08.388Z,2.50
2019-02-02T19:47:49.182Z,2.50
2019-02-02T19:50:25.814Z,2.40
2019-02-02T19:53:01.083Z,2.50
2019-02-02T19:55:32.605Z,2.50
2019-02-02T19:58:04.338Z,2.50
2019-02-02T20:00:34.325Z,2.50
2019-02-02T20:03:06.455Z,2.40
2019-02-02T20:05:45.420Z,2.50
2019-02-02T20:08:18.130Z,2.50
2019-02-02T20:10:50.017Z,2.60
2019-02-02T20:13:21.927Z,2.60
2019-02-02T20:15:55.214Z,2.60
2019-02-02T20:18:25.100Z,2.60
2019-02-02T20:20:54.604Z,2.50
2019-02-02T20:23:26.714Z,2.50
2019-02-02T20:25:56.107Z,2.50
2019-02-02T20:31:29.729Z,2.50
2019-02-02T20:34:00.443Z,2.50
2019-02-02T20:36:29.698Z,2.50
2019-02-02T20:38:59.155Z,2.50
2019-02-02T20:41:28.261Z,2.50
2019-02-02T20:44:08.678Z,2.40
2019-02-02T20:46:37.747Z,2.30
2019-02-02T20:49:08.064Z,2.30
2019-02-02T20:51:37.365Z,2.30
2019-02-02T20:54:06.509Z,2.30
2019-02-02T20:56:35.861Z,2.30
2019-02-02T20:59:06.086Z,2.30
2019-02-02T21:01:35.325Z,2.40
2019-02-02T21:04:04.603Z,2.30
2019-02-02T21:06:33.702Z,2.30
2019-02-02T21:09:03.072Z,2.30
2019-02-02T21:11:32.312Z,2.40
2019-02-02T21:14:01.666Z,2.40
2019-02-02T21:16:33.950Z,2.50
2019-02-02T21:19:02.784Z,2.50
2019-02-02T21:21:31.898Z,2.50
2019-02-02T21:24:01.767Z,2.50
2019-02-02T21:26:31.120Z,2.50
2019-02-02T21:29:00.625Z,2.50
2019-02-02T21:31:30.110Z,2.50
2019-02-02T21:33:59.413Z,2.50
2019-02-02T21:36:29.080Z,2.50
2019-02-02T21:38:58.383Z,2.50
2019-02-02T21:41:28.199Z,2.40
2019-02-02T21:43:58.860Z,2.50
2019-02-02T21:46:28.983Z,2.40
2019-02-02T21:48:58.135Z,2.40
2019-02-02T21:51:27.198Z,2.30
2019-02-02T21:53:56.364Z,2.30
2019-02-02T21:56:25.543Z,2.30
2019-02-02T21:58:55.597Z,2.30
2019-02-02T22:01:29.440Z,2.40
2019-02-02T22:04:02.113Z,2.50
2019-02-02T22:06:33.238Z,2.50
2019-02-02T22:09:02.490Z,2.60
2019-02-02T22:11:31.534Z,2.50
2019-02-02T22:14:10.056Z,2.60
2019-02-02T22:17:06.751Z,2.40
2019-02-02T22:19:46.927Z,2.40
2019-02-02T22:22:19.708Z,2.50
2019-02-02T22:24:50.190Z,2.50
2019-02-02T22:27:21.810Z,2.50
2019-02-02T22:33:23.778Z,2.40
2019-02-02T22:35:55.087Z,2.40
2019-02-02T22:38:24.948Z,2.40
2019-02-02T22:41:41.161Z,2.40
2019-02-02T22:44:18.289Z,2.40
2019-02-02T22:50:06.978Z,2.40
2019-02-02T22:52:52.031Z,2.50
2019-02-02T22:56:08.103Z,2.50
2019-02-02T23:03:17.217Z,2.60
2019-02-02T23:06:21.051Z,2.60
2019-02-02T23:09:23.317Z,2.50
2019-02-02T23:12:21.290Z,2.50
2019-02-02T23:15:19.616Z,2.40
2019-02-02T23:17:49.146Z,2.40
2019-02-02T23:20:51.698Z,2.40
2019-02-02T23:23:30.285Z,2.50
2019-02-02T23:29:43.549Z,2.50
2019-02-02T23:32:58.124Z,2.50
2019-02-02T23:39:32.928Z,2.60
2019-02-02T23:45:29.345Z,2.60
2019-02-02T23:47:59.141Z,2.50
2019-02-02T23:50:34.164Z,2.50
2019-02-02T23:54:09.681Z,2.50
2019-02-02T23:56:20.770Z,2.60
2019-02-02T23:58:49.901Z,2.60
